createdAt,value
2022-08-30T05:56:09.040Z,63.98
2022-08-30T05:57:06.334Z,62.46
2022-08-30T05:58:06.381Z,63.78
2022-08-30T05:59:06.365Z,63.17
2022-08-30T06:00:06.336Z,64.50
2022-08-30T06:01:06.311Z,63.56
2022-08-30T06:02:06.383Z,63.78
2022-08-30T06:03:06.313Z,63.03
2022-08-30T06:04:07.053Z,63.76
2022-08-30T06:05:06.307Z,66.07
2022-08-30T06:06:06.266Z,64.27
2022-08-30T06:07:06.263Z,63.24
2022-08-30T06:08:06.223Z,60.67
2022-08-30T06:09:06.306Z,63.14
2022-08-30T06:10:06.232Z,64.99
2022-08-30T06:11:06.182Z,64.86
2022-08-30T06:12:06.205Z,63.82
2022-08-30T06:13:06.166Z,63.53
2022-08-30T06:14:06.220Z,63.68
2022-08-30T06:15:06.152Z,61.97
2022-08-30T06:16:06.202Z,64.05
2022-08-30T06:17:06.123Z,64.20
2022-08-30T06:18:06.142Z,64.06
2022-08-30T06:19:06.111Z,64.26
2022-08-30T06:20:06.129Z,65.69
2022-08-30T06:21:06.083Z,62.20
2022-08-30T06:22:06.097Z,63.15
2022-08-30T06:23:06.042Z,65.72
2022-08-30T06:24:06.050Z,64.58
2022-08-30T06:25:06.041Z,63.46
2022-08-30T06:26:06.093Z,65.65
2022-08-30T06:27:06.035Z,64.03
2022-08-30T06:28:05.996Z,62.70
2022-08-30T06:29:05.995Z,64.04
2022-08-30T06:30:06.044Z,61.96
2022-08-30T06:31:06.013Z,63.67
2022-08-30T06:32:05.971Z,64.58
2022-08-30T06:52:27.994Z,63.25
2022-08-30T06:53:27.584Z,61.61
2022-08-30T06:54:27.659Z,60.61
2022-08-30T06:55:27.487Z,59.88
2022-08-30T06:56:28.634Z,61.73
2022-08-30T06:57:28.584Z,61.33
2022-08-30T06:58:28.577Z,60.39
2022-08-30T06:59:28.577Z,61.00
2022-08-30T07:00:28.572Z,61.52
2022-08-30T07:04:37.532Z,61.83
2022-08-30T07:05:37.600Z,62.95
2022-08-30T07:06:37.494Z,60.85
2022-08-30T07:07:37.427Z,63.57
2022-08-30T07:08:37.434Z,63.33
2022-08-30T07:09:37.416Z,64.32
2022-08-30T07:10:37.384Z,64.06
2022-08-30T07:11:37.383Z,64.01
2022-08-30T07:12:37.413Z,63.64
2022-08-30T07:13:37.359Z,63.06
2022-08-30T07:14:37.398Z,64.19
2022-08-30T07:15:38.605Z,62.82
2022-08-30T07:16:38.452Z,64.16
2022-08-30T07:17:38.456Z,61.59
2022-08-30T07:18:38.572Z,63.80
2022-08-30T07:19:38.428Z,62.80
2022-08-30T07:20:40.603Z,62.43
2022-08-30T07:21:38.411Z,63.63
2022-08-30T07:22:38.449Z,63.52
2022-08-30T07:23:38.366Z,62.44
2022-08-30T07:24:38.342Z,60.94
2022-08-30T07:25:38.344Z,63.35
2022-08-30T07:26:38.350Z,62.63
2022-08-30T07:27:38.352Z,63.08
2022-08-30T07:28:38.306Z,62.44
2022-08-30T07:29:38.301Z,62.85
2022-08-30T07:30:38.303Z,61.71
2022-08-30T07:31:38.286Z,60.17
2022-08-30T07:32:38.274Z,60.82
2022-08-30T07:33:38.267Z,59.95
2022-08-30T07:34:38.251Z,58.32
2022-08-30T07:35:38.228Z,60.95
2022-08-30T07:36:38.207Z,60.49
2022-08-30T07:37:38.213Z,59.57
2022-08-30T07:38:38.212Z,59.34
2022-08-30T07:39:44.493Z,58.33
2022-08-30T07:40:38.244Z,59.06
2022-08-30T07:41:38.167Z,57.76
2022-08-30T07:42:38.160Z,59.72
2022-08-30T07:43:38.159Z,60.38
2022-08-30T07:44:38.122Z,60.98
2022-08-30T07:45:38.122Z,59.41
2022-08-30T07:46:38.149Z,59.81
2022-08-30T07:47:38.113Z,59.06
2022-08-30T07:48:38.136Z,59.36
2022-08-30T07:49:38.149Z,61.79
2022-08-30T07:50:38.079Z,61.69
2022-08-30T07:51:38.051Z,58.67
2022-08-30T07:53:38.125Z,61.48
2022-08-30T07:54:38.036Z,61.93
2022-08-30T07:55:38.030Z,61.90
2022-08-30T07:56:37.990Z,61.24
2022-08-30T07:57:38.013Z,62.40
2022-08-30T07:58:37.979Z,62.05
2022-08-30T07:59:38.011Z,61.01
2022-08-30T08:00:38.023Z,61.65
2022-08-30T08:01:38.035Z,62.16
2022-08-30T08:02:37.982Z,62.92
2022-08-30T08:03:37.927Z,61.92
2022-08-30T08:04:37.938Z,62.27
2022-08-30T08:05:37.944Z,59.65
2022-08-30T08:06:37.901Z,61.34
2022-08-30T08:07:37.879Z,61.16
2022-08-30T08:08:37.894Z,61.82
2022-08-30T08:09:37.893Z,60.80
2022-08-30T08:10:37.860Z,60.76
2022-08-30T08:11:37.851Z,60.92
2022-08-30T08:12:37.835Z,63.10
2022-08-30T08:13:50.636Z,63.72
2022-08-30T08:14:37.830Z,62.72
2022-08-30T08:15:37.860Z,62.88
2022-08-30T08:16:37.804Z,60.02
2022-08-30T08:17:37.785Z,61.00
2022-08-30T08:18:37.783Z,62.46
2022-08-30T08:19:37.849Z,63.44
2022-08-30T08:20:37.762Z,62.88
2022-08-30T08:21:37.734Z,61.44
2022-08-30T08:22:40.037Z,62.23
2022-08-30T08:23:38.743Z,63.75
2022-08-30T08:24:37.758Z,61.86
2022-08-30T08:25:37.671Z,61.12
2022-08-30T08:26:37.711Z,62.68
2022-08-30T08:27:37.649Z,61.15
2022-08-30T08:28:37.645Z,59.68
2022-08-30T08:29:37.668Z,60.87
2022-08-30T08:30:37.653Z,60.46
2022-08-30T08:31:37.698Z,60.35
2022-08-30T08:32:37.638Z,59.74
2022-08-30T08:33:37.581Z,62.46
2022-08-30T08:34:37.719Z,62.85
2022-08-30T08:35:37.726Z,61.00
2022-08-30T08:36:37.808Z,60.98
2022-08-30T08:37:37.641Z,60.31
2022-08-30T08:38:37.852Z,61.97
2022-08-30T08:39:37.522Z,59.11
2022-08-30T08:40:37.637Z,59.49
2022-08-30T08:41:37.528Z,58.83
2022-08-30T08:42:37.489Z,56.68
2022-08-30T08:43:37.497Z,56.44
2022-08-30T08:44:37.497Z,55.89
2022-08-30T08:45:37.465Z,56.93
2022-08-30T08:46:37.702Z,59.36
2022-08-30T08:47:37.436Z,56.34
2022-08-30T08:48:58.461Z,56.01
2022-08-30T08:49:37.418Z,58.11
2022-08-30T08:50:37.422Z,57.60
2022-08-30T08:51:37.405Z,56.49
2022-08-30T08:52:37.405Z,56.82
2022-08-30T08:53:50.167Z,57.54
2022-08-30T08:54:39.361Z,55.95
2022-08-30T08:55:37.560Z,56.17
2022-08-30T08:56:37.349Z,56.84
2022-08-30T08:57:37.340Z,55.51
2022-08-30T08:58:37.311Z,57.05
2022-08-30T08:59:37.314Z,56.26
2022-08-30T09:00:37.304Z,54.15
2022-08-30T09:01:37.320Z,55.10
2022-08-30T09:02:37.273Z,54.21
2022-08-30T09:03:37.254Z,55.72
2022-08-30T09:04:37.269Z,57.21
2022-08-30T09:05:37.224Z,56.09
2022-08-30T09:06:37.254Z,57.32
2022-08-30T09:07:37.213Z,56.31
2022-08-30T09:08:37.195Z,55.51
2022-08-30T09:09:37.197Z,54.07
2022-08-30T09:10:49.773Z,53.14
2022-08-30T09:11:37.183Z,52.72
2022-08-30T09:12:37.164Z,52.35
2022-08-30T09:13:37.124Z,56.03
2022-08-30T09:14:38.877Z,56.52
2022-08-30T09:15:37.146Z,52.84
2022-08-30T09:16:37.154Z,55.65
2022-08-30T09:17:37.098Z,52.89
2022-08-30T09:18:37.081Z,55.26
2022-08-30T09:19:37.069Z,55.84
2022-08-30T09:20:37.093Z,58.20
2022-08-30T09:21:37.096Z,56.86
2022-08-30T09:22:37.049Z,56.64
2022-08-30T09:23:37.013Z,55.33
2022-08-30T09:24:37.044Z,51.91
2022-08-30T09:25:41.646Z,55.08
2022-08-30T09:26:37.013Z,55.85
2022-08-30T09:27:37.041Z,55.84
2022-08-30T09:28:36.999Z,53.72
2022-08-30T09:29:36.957Z,53.78
2022-08-30T09:30:37.009Z,56.17
2022-08-30T09:31:36.969Z,55.80
2022-08-30T09:32:36.956Z,54.31
2022-08-30T09:33:36.973Z,54.34
2022-08-30T09:34:36.906Z,55.30
2022-08-30T09:35:36.917Z,53.20
2022-08-30T09:36:36.922Z,55.16
2022-08-30T09:37:36.907Z,54.91
2022-08-30T09:38:36.892Z,54.97
2022-08-30T09:39:36.863Z,52.14
2022-08-30T09:40:36.900Z,54.17
2022-08-30T09:41:37.350Z,55.68
2022-08-30T09:42:37.911Z,54.90
2022-08-30T09:43:36.866Z,55.44
2022-08-30T09:44:36.825Z,55.01
2022-08-30T09:45:36.800Z,54.91
2022-08-30T09:46:36.838Z,54.37
2022-08-30T09:47:36.839Z,57.10
2022-08-30T09:48:36.779Z,54.55
2022-08-30T09:49:36.755Z,54.82
2022-08-30T09:50:37.198Z,54.17
2022-08-30T09:51:36.736Z,55.22
2022-08-30T09:52:36.765Z,55.39
2022-08-30T09:53:36.745Z,54.52
2022-08-30T09:54:36.738Z,53.28
2022-08-30T09:55:36.685Z,55.13
2022-08-30T09:56:36.741Z,54.79
2022-08-30T09:57:36.675Z,54.32
2022-08-30T09:58:36.674Z,53.05
2022-08-30T09:59:36.644Z,53.92
2022-08-30T10:00:36.664Z,54.03
2022-08-30T10:01:36.657Z,54.71
2022-08-30T10:02:36.633Z,54.21
2022-08-30T10:03:40.736Z,54.55
2022-08-30T10:04:36.579Z,55.08
2022-08-30T10:05:36.767Z,55.82
2022-08-30T10:06:36.637Z,55.97
2022-08-30T10:07:36.586Z,54.20
2022-08-30T10:08:36.589Z,55.72
2022-08-30T10:09:36.583Z,56.98
2022-08-30T10:10:36.548Z,56.67
2022-08-30T10:11:36.540Z,55.97
2022-08-30T10:12:36.506Z,53.08
2022-08-30T10:13:36.550Z,54.38
2022-08-30T10:14:36.673Z,52.22
2022-08-30T10:15:36.703Z,54.29
2022-08-30T10:16:36.907Z,54.22
2022-08-30T10:17:36.601Z,55.91
2022-08-30T10:18:36.735Z,56.31
2022-08-30T10:19:36.653Z,57.50
2022-08-30T10:20:36.478Z,56.16
2022-08-30T10:21:36.465Z,58.80
2022-08-30T10:22:36.406Z,56.22
2022-08-30T10:23:36.393Z,56.55
2022-08-30T10:24:36.442Z,56.01
2022-08-30T10:25:36.392Z,59.52
2022-08-30T10:26:36.345Z,59.09
2022-08-30T10:27:36.341Z,57.07
2022-08-30T10:28:36.410Z,57.27
2022-08-30T10:29:39.499Z,54.06
2022-08-30T10:30:37.425Z,52.28
2022-08-30T10:31:36.543Z,55.48
2022-08-30T10:32:36.280Z,53.26
2022-08-30T10:33:36.326Z,53.83
2022-08-30T10:34:36.282Z,55.78
2022-08-30T10:35:38.963Z,53.94
2022-08-30T10:36:37.027Z,56.77
2022-08-30T10:37:36.279Z,54.97
2022-08-30T10:38:36.210Z,53.20
2022-08-30T10:39:36.255Z,53.32
2022-08-30T10:40:36.378Z,55.51
2022-08-30T10:41:36.250Z,53.06
2022-08-30T10:42:39.926Z,55.30
2022-08-30T10:43:36.177Z,56.07
2022-08-30T10:44:36.239Z,56.63
2022-08-30T10:45:36.886Z,56.17
2022-08-30T10:46:36.152Z,55.16
2022-08-30T10:47:36.134Z,54.72
2022-08-30T10:48:36.164Z,53.90
2022-08-30T10:49:36.119Z,55.84
2022-08-30T10:50:41.173Z,57.94
2022-08-30T10:51:37.096Z,58.25
2022-08-30T10:52:36.109Z,56.81
2022-08-30T10:53:36.052Z,56.49
2022-08-30T10:54:36.051Z,56.21
2022-08-30T10:55:36.064Z,56.18
2022-08-30T10:56:36.035Z,57.24
2022-08-30T10:57:36.055Z,55.68
2022-08-30T10:58:36.000Z,56.95
2022-08-30T10:59:36.000Z,56.41
2022-08-30T11:00:36.023Z,57.29
2022-08-30T11:01:35.989Z,58.68
2022-08-30T11:02:35.971Z,57.87
2022-08-30T11:03:36.034Z,57.72
2022-08-30T11:04:35.961Z,55.21
2022-08-30T11:05:35.992Z,55.07
2022-08-30T11:06:35.917Z,54.27
2022-08-30T11:07:35.908Z,53.37
2022-08-30T11:08:35.926Z,53.43
2022-08-30T11:09:36.076Z,55.46
2022-08-30T11:10:35.932Z,57.09
2022-08-30T11:11:35.886Z,56.65
2022-08-30T11:12:35.879Z,54.08
2022-08-30T11:13:35.855Z,54.62
2022-08-30T11:14:35.851Z,56.09
2022-08-30T11:15:35.838Z,56.89
2022-08-30T11:16:35.880Z,55.88
2022-08-30T11:17:35.807Z,56.74
2022-08-30T11:18:35.815Z,55.34
2022-08-30T11:19:35.811Z,57.28
2022-08-30T11:20:35.801Z,56.55
2022-08-30T11:21:35.817Z,56.51
2022-08-30T11:22:39.027Z,55.57
2022-08-30T11:23:35.762Z,56.32
2022-08-30T11:24:35.722Z,55.38
2022-08-30T11:25:38.573Z,54.87
2022-08-30T11:26:35.745Z,54.15
2022-08-30T11:27:35.712Z,55.33
2022-08-30T11:28:35.711Z,54.72
2022-08-30T11:29:35.688Z,56.53
2022-08-30T11:30:35.724Z,53.64
2022-08-30T11:31:35.711Z,55.44
2022-08-30T11:32:35.666Z,56.53
2022-08-30T11:33:35.653Z,53.55
2022-08-30T11:34:35.630Z,56.22
2022-08-30T11:35:35.629Z,55.46
2022-08-30T11:36:37.932Z,55.20
2022-08-30T11:37:35.614Z,56.81
2022-08-30T11:38:35.574Z,56.47
2022-08-30T11:39:35.568Z,53.11
2022-08-30T11:40:35.577Z,54.51
2022-08-30T11:41:40.851Z,54.69
2022-08-30T11:42:35.913Z,53.95
2022-08-30T11:43:36.693Z,56.89
2022-08-30T11:44:35.530Z,53.97
2022-08-30T11:45:35.604Z,54.02
2022-08-30T11:46:35.505Z,54.02
2022-08-30T11:47:35.547Z,53.79
2022-08-30T11:48:35.476Z,55.01
2022-08-30T11:49:35.450Z,58.48
2022-08-30T11:50:35.467Z,52.85
2022-08-30T11:51:35.440Z,54.35
2022-08-30T11:52:35.458Z,52.61
2022-08-30T11:53:35.420Z,53.40
2022-08-30T11:54:35.443Z,54.23
2022-08-30T11:55:35.402Z,55.42
2022-08-30T11:56:35.475Z,54.21
2022-08-30T11:57:35.383Z,54.30
2022-08-30T11:58:35.390Z,55.48
2022-08-30T11:59:35.360Z,54.80
2022-08-30T12:00:35.473Z,52.86
2022-08-30T12:01:51.152Z,53.76
2022-08-30T12:02:37.504Z,53.46
2022-08-30T12:03:35.435Z,51.47
2022-08-30T12:04:35.317Z,50.68
2022-08-30T12:05:35.304Z,52.81
2022-08-30T12:06:35.290Z,51.99
2022-08-30T12:07:35.902Z,54.16
2022-08-30T12:08:36.108Z,55.40
2022-08-30T12:09:35.323Z,54.66
2022-08-30T12:10:35.281Z,52.37
2022-08-30T12:11:35.232Z,50.57
2022-08-30T12:12:35.194Z,51.35
2022-08-30T12:13:35.183Z,51.49
2022-08-30T12:14:35.182Z,52.49
2022-08-30T12:15:35.249Z,53.25
2022-08-30T12:16:35.260Z,51.84
2022-08-30T12:17:35.142Z,53.79
2022-08-30T12:18:35.151Z,55.72
2022-08-30T12:19:35.113Z,59.33
2022-08-30T12:20:35.146Z,53.93
2022-08-30T12:21:43.907Z,52.51
2022-08-30T12:22:35.282Z,52.31
2022-08-30T12:23:35.115Z,53.75
2022-08-30T12:24:35.185Z,54.33
2022-08-30T12:25:35.205Z,52.87
2022-08-30T12:26:35.058Z,53.38
2022-08-30T12:27:35.103Z,55.15
2022-08-30T12:28:35.070Z,54.90
2022-08-30T12:29:35.001Z,55.74
2022-08-30T12:30:35.030Z,58.04
2022-08-30T12:31:35.257Z,55.95
2022-08-30T12:32:35.068Z,56.31
2022-08-30T12:33:41.321Z,56.34
2022-08-30T12:34:35.966Z,56.57
2022-08-30T12:35:35.181Z,54.78
2022-08-30T12:36:35.125Z,54.59
2022-08-30T12:37:34.934Z,54.57
2022-08-30T12:38:34.944Z,55.86
2022-08-30T12:39:34.930Z,54.14
2022-08-30T12:40:35.011Z,54.36
2022-08-30T12:41:34.894Z,55.76
2022-08-30T12:47:43.363Z,57.07
2022-08-30T12:48:42.819Z,54.56
2022-08-30T12:49:42.940Z,55.54
2022-08-30T12:50:42.720Z,54.40
2022-08-30T12:51:42.742Z,55.87
2022-08-30T12:52:42.728Z,56.12
2022-08-30T12:53:42.728Z,57.81
2022-08-30T12:54:42.725Z,59.26
2022-08-30T12:55:42.701Z,59.33
2022-08-30T12:56:49.934Z,62.67
2022-08-30T12:57:43.678Z,60.81
2022-08-30T12:58:42.628Z,59.29
2022-08-30T12:59:44.392Z,60.68
2022-08-30T13:00:42.875Z,60.70
2022-08-30T13:01:42.759Z,61.07
2022-08-30T13:02:42.646Z,60.90
2022-08-30T13:03:42.621Z,60.19
2022-08-30T13:04:42.561Z,59.89
2022-08-30T13:05:45.786Z,60.31
2022-08-30T13:06:42.541Z,60.25
2022-08-30T13:07:42.582Z,59.64
2022-08-30T13:08:42.523Z,60.43
2022-08-30T13:09:42.642Z,61.39
2022-08-30T13:10:42.530Z,58.63
2022-08-30T13:11:42.466Z,56.42
2022-08-30T13:12:42.472Z,53.13
2022-08-30T13:13:44.337Z,54.73
2022-08-30T13:14:43.771Z,54.98
2022-08-30T13:15:43.691Z,54.50
2022-08-30T13:16:45.454Z,56.95
2022-08-30T13:17:43.623Z,54.84
2022-08-30T13:18:43.574Z,54.59
2022-08-30T13:19:43.557Z,54.49
2022-08-30T13:20:43.521Z,56.43
2022-08-30T13:21:43.519Z,55.64
2022-08-30T13:22:43.492Z,55.18
2022-08-30T13:23:43.469Z,56.25
2022-08-30T13:24:43.462Z,55.87
2022-08-30T13:25:43.486Z,55.94
2022-08-30T13:26:43.455Z,55.08
2022-08-30T13:27:43.452Z,56.03
2022-08-30T13:28:43.417Z,54.20
2022-08-30T13:29:44.423Z,55.80
2022-08-30T13:30:43.469Z,56.46
2022-08-30T13:31:43.476Z,55.24
2022-08-30T13:32:43.409Z,55.56
2022-08-30T13:33:43.383Z,56.00
2022-08-30T13:34:43.393Z,56.15
2022-08-30T13:35:43.331Z,57.61
2022-08-30T13:36:44.826Z,56.20
2022-08-30T13:37:49.569Z,56.00
2022-08-30T13:38:45.323Z,58.42
2022-08-30T13:39:43.343Z,57.74
2022-08-30T13:40:43.335Z,56.61
2022-08-30T13:41:43.384Z,59.41
2022-08-30T13:42:43.240Z,55.08
2022-08-30T13:44:43.262Z,55.61
2022-08-30T13:45:43.465Z,56.76
2022-08-30T13:46:43.465Z,57.38
2022-08-30T13:47:43.375Z,55.01
2022-08-30T13:48:43.223Z,55.96
2022-08-30T13:49:43.824Z,57.66
2022-08-30T13:50:44.180Z,58.78
2022-08-30T13:51:58.117Z,58.39
2022-08-30T13:52:43.191Z,59.58
2022-08-30T13:53:58.522Z,56.89
2022-08-30T13:54:45.121Z,55.65
2022-08-30T13:55:43.259Z,53.91
2022-08-30T13:56:43.140Z,54.05
2022-08-30T13:57:58.382Z,53.62
2022-08-30T13:58:45.096Z,54.11
2022-08-30T13:59:43.072Z,52.38
2022-08-30T14:00:43.089Z,53.93
2022-08-30T14:02:48.797Z,55.72
2022-08-30T14:04:43.098Z,55.43
2022-08-30T14:06:00.474Z,55.39
2022-08-30T14:07:43.031Z,55.81
2022-08-30T14:08:45.278Z,54.64
2022-08-30T14:09:43.976Z,56.57
2022-08-30T14:10:47.163Z,55.50
2022-08-30T14:11:43.955Z,55.05
2022-08-30T14:13:08.181Z,53.67
2022-08-30T14:14:44.198Z,53.18
2022-08-30T14:15:42.879Z,52.32
2022-08-30T14:16:42.942Z,53.98
2022-08-30T14:17:42.882Z,53.54
2022-08-30T14:18:42.876Z,55.83
2022-08-30T14:19:42.874Z,55.16
2022-08-30T14:20:43.908Z,54.93
2022-08-30T14:21:43.115Z,55.19
2022-08-30T14:22:42.854Z,55.52
2022-08-30T14:23:42.855Z,55.02
2022-08-30T14:24:42.809Z,55.60
2022-08-30T14:25:42.820Z,57.59
2022-08-30T14:26:43.478Z,57.82
2022-08-30T14:27:42.862Z,58.93
2022-08-30T14:28:42.813Z,59.23
2022-08-30T14:29:43.122Z,58.45
2022-08-30T14:30:42.756Z,59.69
2022-08-30T14:31:42.795Z,55.42
2022-08-30T14:32:42.981Z,57.01
2022-08-30T14:33:42.708Z,58.10
2022-08-30T14:34:42.685Z,56.86
2022-08-30T14:35:42.685Z,56.46
2022-08-30T14:36:42.662Z,54.79
2022-08-30T14:37:42.702Z,52.36
2022-08-30T14:38:42.929Z,50.79
2022-08-30T14:39:42.619Z,50.06
2022-08-30T14:40:42.658Z,49.87
2022-08-30T14:41:43.625Z,51.29
2022-08-30T14:42:42.620Z,52.63
2022-08-30T14:43:42.628Z,52.15
2022-08-30T14:44:55.843Z,52.92
2022-08-30T14:45:42.611Z,54.26
2022-08-30T14:48:53.421Z,53.95
2022-08-30T14:48:59.983Z,0.00
2022-08-30T14:49:59.931Z,55.78
2022-08-30T14:51:00.039Z,57.43
2022-08-30T14:51:59.932Z,55.08
2022-08-30T14:52:59.955Z,56.25
2022-08-30T14:53:59.911Z,55.74
2022-08-30T14:55:05.268Z,58.15
2022-08-30T14:55:59.953Z,55.26
2022-08-30T14:57:00.945Z,54.87
2022-08-30T14:57:59.860Z,55.88
2022-08-30T14:58:59.793Z,56.91
2022-08-30T14:59:59.802Z,56.31
2022-08-30T15:00:59.906Z,58.83
2022-08-30T15:01:59.855Z,57.29
2022-08-30T15:02:59.814Z,57.75
2022-08-30T15:03:59.818Z,57.98
2022-08-30T15:04:59.874Z,55.64
2022-08-30T15:05:59.711Z,56.56
2022-08-30T15:06:59.692Z,57.03
2022-08-30T15:07:59.695Z,55.36
2022-08-30T15:09:00.006Z,54.32
2022-08-30T15:09:59.693Z,56.15
2022-08-30T15:10:59.666Z,55.62
2022-08-30T15:11:59.642Z,55.95
2022-08-30T15:12:59.633Z,57.07
2022-08-30T15:13:59.669Z,57.96
2022-08-30T15:14:59.611Z,57.46
2022-08-30T15:15:59.597Z,57.41
2022-08-30T15:16:59.570Z,59.13
2022-08-30T15:17:59.808Z,58.04
2022-08-30T15:18:59.561Z,63.39
2022-08-30T15:19:59.521Z,63.84
2022-08-30T15:20:59.513Z,62.03
2022-08-30T15:21:59.505Z,63.49
2022-08-30T15:22:59.496Z,61.71
2022-08-30T15:23:59.490Z,58.46
2022-08-30T15:24:59.492Z,55.61
2022-08-30T15:25:59.462Z,56.45
2022-08-30T15:26:59.728Z,58.92
2022-08-30T15:27:59.442Z,56.34
2022-08-30T15:28:59.435Z,56.60
2022-08-30T15:29:59.431Z,57.30
2022-08-30T15:30:59.525Z,58.50
2022-08-30T15:31:59.423Z,57.99
2022-08-30T15:32:59.391Z,54.89
2022-08-30T15:33:59.363Z,55.19
2022-08-30T15:34:59.398Z,55.70
2022-08-30T15:35:59.351Z,54.93
2022-08-30T15:36:59.337Z,56.06
2022-08-30T15:37:59.338Z,62.21
2022-08-30T15:38:59.323Z,61.80
2022-08-30T15:39:59.384Z,54.49
2022-08-30T15:40:59.306Z,55.76
2022-08-30T15:42:01.011Z,53.93
2022-08-30T15:42:59.348Z,61.14
2022-08-30T15:43:59.254Z,55.89
2022-08-30T15:44:59.329Z,59.00
2022-08-30T15:45:59.260Z,55.26
2022-08-30T15:46:59.295Z,54.88
2022-08-30T15:47:59.243Z,53.58
2022-08-30T15:48:59.228Z,54.91
2022-08-30T15:49:59.269Z,53.52
2022-08-30T15:50:59.186Z,55.69
2022-08-30T15:52:34.464Z,54.10
2022-08-30T15:52:59.491Z,54.09
2022-08-30T15:53:59.293Z,52.21
2022-08-30T15:54:59.565Z,54.57
2022-08-30T15:55:59.926Z,55.28
2022-08-30T15:56:59.750Z,54.54
2022-08-30T15:57:59.265Z,60.25
2022-08-30T15:58:59.117Z,63.04
2022-08-30T15:59:59.087Z,56.83
2022-08-30T16:00:59.358Z,57.66
2022-08-30T16:01:59.337Z,56.06
2022-08-30T16:02:59.145Z,53.00
2022-08-30T16:03:59.120Z,54.70
2022-08-30T16:04:59.075Z,54.30
2022-08-30T16:05:59.141Z,54.07
2022-08-30T16:06:59.252Z,53.49
2022-08-30T16:07:59.737Z,53.08
2022-08-30T16:08:58.997Z,55.11
2022-08-30T16:09:59.297Z,56.15
2022-08-30T16:10:59.384Z,56.29
2022-08-30T16:11:59.154Z,57.58
2022-08-30T16:12:59.064Z,52.38
2022-08-30T16:13:59.024Z,54.54
2022-08-30T16:14:58.988Z,55.63
2022-08-30T16:15:58.977Z,54.70
2022-08-30T16:16:58.953Z,55.52
2022-08-30T16:17:59.262Z,55.71
2022-08-30T16:18:58.962Z,55.63
2022-08-30T16:19:59.134Z,54.74
2022-08-30T16:20:59.024Z,56.52
2022-08-30T16:21:58.850Z,58.01
2022-08-30T16:22:58.883Z,57.79
2022-08-30T16:23:58.844Z,57.48
2022-08-30T16:24:58.850Z,54.08
2022-08-30T16:26:04.257Z,54.73
2022-08-30T16:26:58.858Z,56.53
2022-08-30T16:27:59.260Z,55.61
2022-08-30T16:28:58.831Z,56.95
2022-08-30T16:29:58.795Z,55.90
2022-08-30T16:30:58.901Z,53.56
2022-08-30T16:31:58.901Z,55.73
2022-08-30T16:32:58.747Z,55.58
2022-08-30T16:34:03.670Z,54.91
2022-08-30T16:34:58.712Z,53.39
2022-08-30T16:35:58.784Z,56.12
2022-08-30T16:36:58.719Z,57.81
2022-08-30T16:37:58.932Z,55.43
2022-08-30T16:38:58.689Z,56.16
2022-08-30T16:39:58.890Z,56.44
2022-08-30T16:40:58.723Z,56.49
2022-08-30T16:41:58.675Z,55.70
2022-08-30T16:42:58.725Z,54.88
2022-08-30T16:43:58.624Z,55.00
2022-08-30T16:44:58.638Z,54.74
2022-08-30T16:45:58.635Z,56.22
2022-08-30T16:46:58.704Z,55.77
2022-08-30T16:47:58.794Z,53.37
2022-08-30T16:48:58.750Z,55.71
2022-08-30T16:49:58.619Z,56.52
2022-08-30T16:50:59.153Z,54.73
2022-08-30T16:51:58.508Z,54.72
2022-08-30T16:52:58.497Z,55.77
2022-08-30T16:53:58.488Z,55.42
2022-08-30T16:54:58.473Z,56.28
2022-08-30T16:55:58.430Z,54.63
2022-08-30T16:56:58.415Z,54.19
2022-08-30T16:57:58.487Z,57.26
2022-08-30T16:59:02.613Z,55.66
2022-08-30T16:59:58.518Z,54.48
2022-08-30T17:00:58.444Z,54.23
2022-08-30T17:01:58.464Z,54.50
2022-08-30T17:02:58.426Z,55.05
2022-08-30T17:03:58.547Z,55.25
2022-08-30T17:04:58.346Z,53.76
2022-08-30T17:05:58.347Z,53.79
2022-08-30T17:06:58.734Z,54.18
2022-08-30T17:07:58.367Z,53.95
2022-08-30T17:08:58.277Z,55.56
2022-08-30T17:09:58.484Z,55.45
2022-08-30T17:10:58.264Z,54.09
2022-08-30T17:11:58.255Z,54.75
2022-08-30T17:12:58.253Z,55.72
2022-08-30T17:13:58.243Z,57.62
2022-08-30T17:14:58.220Z,53.79
2022-08-30T17:15:58.356Z,54.08
2022-08-30T17:16:58.186Z,56.58
2022-08-30T17:17:58.175Z,54.82
2022-08-30T17:18:59.887Z,54.10
2022-08-30T17:19:58.166Z,55.97
2022-08-30T17:20:58.166Z,54.34
2022-08-30T17:21:58.416Z,54.10
2022-08-30T17:22:58.118Z,53.62
2022-08-30T17:24:01.648Z,55.85
2022-08-30T17:24:58.096Z,55.93
2022-08-30T17:25:58.089Z,59.87
2022-08-30T17:26:58.280Z,57.92
2022-08-30T17:27:58.089Z,55.31
2022-08-30T17:28:58.164Z,56.73
2022-08-30T17:29:58.026Z,54.24
2022-08-30T17:30:58.077Z,56.38
2022-08-30T17:31:58.100Z,56.14
2022-08-30T17:32:57.998Z,57.08
2022-08-30T17:34:01.236Z,55.48
2022-08-30T17:34:57.988Z,55.18
2022-08-30T17:35:57.976Z,56.12
2022-08-30T17:36:57.939Z,56.28
2022-08-30T17:37:57.925Z,54.39
2022-08-30T17:38:57.935Z,55.79
2022-08-30T17:39:57.949Z,57.17
2022-08-30T17:40:57.898Z,56.44
2022-08-30T17:41:57.880Z,56.56
2022-08-30T17:42:57.886Z,55.32
2022-08-30T17:43:57.857Z,57.08
2022-08-30T17:45:01.250Z,57.08
2022-08-30T17:45:57.842Z,53.43
2022-08-30T17:46:57.899Z,55.93
2022-08-30T17:47:57.820Z,55.73
2022-08-30T17:49:01.247Z,55.10
2022-08-30T17:49:57.813Z,55.83
2022-08-30T17:50:57.816Z,55.36
2022-08-30T17:51:57.923Z,55.62
2022-08-30T17:52:57.753Z,56.56
2022-08-30T17:53:57.731Z,54.96
2022-08-30T17:54:57.741Z,57.27
2022-08-30T17:55:57.702Z,55.23
2022-08-30T17:56:57.694Z,56.20
2022-08-30T17:57:57.687Z,56.16
2022-08-30T17:58:57.694Z,56.01
2022-08-30T17:59:57.693Z,55.84
2022-08-30T18:00:57.701Z,55.36
2022-08-30T18:01:57.700Z,54.60
2022-08-30T18:02:57.917Z,57.85
2022-08-30T18:04:01.563Z,56.42
2022-08-30T18:04:58.169Z,56.93
2022-08-30T18:05:57.582Z,56.72
2022-08-30T18:06:57.623Z,56.96
2022-08-30T18:07:57.589Z,57.31
2022-08-30T18:08:57.560Z,57.37
2022-08-30T18:09:57.573Z,56.36
2022-08-30T18:10:57.526Z,54.89
2022-08-30T18:11:57.572Z,55.26
2022-08-30T18:12:57.503Z,55.55
2022-08-30T18:13:58.094Z,55.33
2022-08-30T18:14:57.475Z,55.57
2022-08-30T18:15:57.514Z,54.61
2022-08-30T18:16:57.480Z,58.11
2022-08-30T18:17:57.438Z,54.32
2022-08-30T18:18:57.697Z,55.18
2022-08-30T18:19:57.757Z,55.38
2022-08-30T18:20:57.408Z,54.51
2022-08-30T18:21:57.392Z,54.95
2022-08-30T18:22:57.384Z,54.83
2022-08-30T18:23:57.825Z,53.43
2022-08-30T18:25:02.128Z,54.12
2022-08-30T18:25:57.505Z,55.52
2022-08-30T18:26:57.387Z,54.87
2022-08-30T18:27:58.895Z,54.38
2022-08-30T18:28:57.315Z,53.80
2022-08-30T18:29:57.357Z,54.38
2022-08-30T18:30:57.372Z,52.69
2022-08-30T18:31:57.326Z,53.21
2022-08-30T18:32:57.284Z,54.87
2022-08-30T18:33:57.452Z,52.33
2022-08-30T18:34:57.262Z,54.33
2022-08-30T18:35:57.310Z,54.58
2022-08-30T18:36:57.248Z,54.70
2022-08-30T18:37:57.255Z,56.02
2022-08-30T18:38:57.199Z,53.68
2022-08-30T18:39:57.191Z,54.73
2022-08-30T18:40:57.218Z,57.73
2022-08-30T18:41:57.194Z,53.88
2022-08-30T18:42:57.181Z,55.15
2022-08-30T18:44:11.267Z,53.45
2022-08-30T18:44:57.145Z,52.72
2022-08-30T18:45:57.150Z,54.73
2022-08-30T18:46:57.352Z,54.50
2022-08-30T18:47:57.118Z,55.06
2022-08-30T18:48:57.105Z,51.56
2022-08-30T18:49:57.732Z,54.50
2022-08-30T18:50:57.249Z,52.01
2022-08-30T18:51:58.067Z,54.39
2022-08-30T18:52:57.085Z,54.90
2022-08-30T18:53:57.046Z,53.78
2022-08-30T18:54:57.065Z,56.45
2022-08-30T18:55:57.026Z,53.16
2022-08-30T18:56:57.034Z,55.13
2022-08-30T18:57:56.994Z,56.07
2022-08-30T18:58:57.019Z,55.94
2022-08-30T18:59:56.981Z,55.19
2022-08-30T19:00:57.129Z,55.87
2022-08-30T19:01:57.056Z,53.50
2022-08-30T19:02:56.937Z,54.40
2022-08-30T19:03:56.920Z,53.53
2022-08-30T19:04:56.914Z,53.29
2022-08-30T19:05:56.893Z,55.57
2022-08-30T19:06:56.927Z,53.87
2022-08-30T19:07:56.907Z,53.72
2022-08-30T19:08:57.639Z,55.34
2022-08-30T19:09:59.008Z,54.64
2022-08-30T19:11:01.397Z,55.19
2022-08-30T19:11:56.849Z,54.08
2022-08-30T19:12:56.815Z,50.15
2022-08-30T19:13:56.826Z,53.32
2022-08-30T19:14:56.807Z,55.50
2022-08-30T19:15:56.790Z,52.62
2022-08-30T19:16:56.819Z,54.01
2022-08-30T19:17:56.773Z,52.09
2022-08-30T19:18:56.759Z,53.77
2022-08-30T19:19:56.741Z,53.47
2022-08-30T19:20:56.758Z,52.78
2022-08-30T19:21:56.772Z,52.62
2022-08-30T19:23:08.888Z,55.24